createdAt,value
2019-03-03T00:00:41.701Z,2.80
2019-03-03T00:03:11.273Z,2.80
2019-03-03T00:05:40.158Z,2.80
2019-03-03T00:08:08.738Z,2.80
2019-03-03T00:10:43.137Z,2.90
2019-03-03T00:13:09.094Z,2.90
2019-03-03T00:15:37.690Z,2.90
2019-03-03T00:18:06.041Z,2.90
2019-03-03T00:20:37.078Z,2.90
2019-03-03T00:23:05.580Z,2.90
2019-03-03T00:25:33.979Z,3.00
2019-03-03T00:28:02.515Z,3.00
2019-03-03T00:30:30.931Z,3.00
2019-03-03T00:32:59.393Z,3.00
2019-03-03T00:35:27.787Z,3.00
2019-03-03T00:38:04.065Z,3.10
2019-03-03T00:40:43.390Z,3.10
2019-03-03T00:43:29.469Z,3.00
2019-03-03T00:46:11.745Z,3.10
2019-03-03T00:48:41.783Z,3.00
2019-03-03T00:51:11.850Z,3.10
2019-03-03T00:53:47.849Z,3.00
2019-03-03T00:56:17.887Z,3.10
2019-03-03T00:59:04.181Z,3.00
2019-03-03T01:01:34.727Z,3.10
2019-03-03T01:04:21.170Z,3.10
2019-03-03T01:06:57.692Z,3.10
2019-03-03T01:09:54.902Z,3.10
2019-03-03T01:12:36.638Z,3.10
2019-03-03T01:15:11.622Z,3.10
2019-03-03T01:17:41.590Z,3.00
2019-03-03T01:20:15.054Z,3.10
2019-03-03T01:22:45.082Z,3.10
2019-03-03T01:25:13.459Z,3.10
2019-03-03T01:27:41.914Z,3.00
2019-03-03T01:30:12.323Z,3.10
2019-03-03T01:32:40.719Z,3.10
2019-03-03T01:35:10.492Z,3.10
2019-03-03T01:37:38.890Z,3.10
2019-03-03T01:40:11.517Z,3.10
2019-03-03T01:42:39.905Z,3.20
2019-03-03T01:45:11.629Z,3.20
2019-03-03T01:47:40.025Z,3.20
2019-03-03T01:50:13.258Z,3.20
2019-03-03T01:52:41.722Z,3.20
2019-03-03T01:55:11.525Z,3.20
2019-03-03T01:57:39.982Z,3.20
2019-03-03T02:00:23.853Z,3.20
2019-03-03T02:02:52.250Z,3.20
2019-03-03T02:05:20.707Z,3.20
2019-03-03T02:07:49.115Z,3.20
2019-03-03T02:10:18.718Z,3.10
2019-03-03T02:12:47.010Z,3.20
2019-03-03T02:15:15.567Z,3.10
2019-03-03T02:17:44.331Z,3.20
2019-03-03T02:20:12.773Z,3.10
2019-03-03T02:22:41.137Z,3.20
2019-03-03T02:25:11.575Z,3.10
2019-03-03T02:27:40.246Z,3.10
2019-03-03T02:30:12.368Z,3.10
2019-03-03T02:32:40.065Z,3.20
2019-03-03T02:35:08.431Z,3.20
2019-03-03T02:37:36.823Z,3.20
2019-03-03T02:40:08.702Z,3.20
2019-03-03T02:42:37.154Z,3.10
2019-03-03T02:45:08.609Z,3.10
2019-03-03T02:47:37.000Z,3.20
2019-03-03T02:50:08.122Z,3.20
2019-03-03T02:52:36.510Z,3.30
2019-03-03T02:57:40.231Z,3.20
2019-03-03T03:00:11.889Z,3.20
2019-03-03T03:02:41.916Z,3.20
2019-03-03T03:05:10.291Z,3.20
2019-03-03T03:07:40.331Z,3.20
2019-03-03T03:10:13.009Z,3.20
2019-03-03T03:12:43.046Z,3.20
2019-03-03T03:15:16.217Z,3.20
2019-03-03T03:17:46.265Z,3.20
2019-03-03T03:20:22.337Z,3.20
2019-03-03T03:22:58.168Z,3.20
2019-03-03T03:25:30.837Z,3.30
2019-03-03T03:28:00.935Z,3.30
2019-03-03T03:30:36.754Z,3.30
2019-03-03T03:33:09.458Z,3.30
2019-03-03T03:35:39.523Z,3.30
2019-03-03T03:38:12.163Z,3.30
2019-03-03T03:40:54.245Z,3.40
2019-03-03T03:43:40.527Z,3.40
2019-03-03T03:46:13.250Z,3.40
2019-03-03T03:48:46.251Z,3.40
2019-03-03T03:51:18.978Z,3.50
2019-03-03T03:53:49.018Z,3.50
2019-03-03T03:56:21.786Z,3.40
2019-03-03T03:58:57.531Z,3.50
2019-03-03T04:01:36.722Z,3.40
2019-03-03T04:04:19.057Z,3.40
2019-03-03T04:06:58.246Z,3.40
2019-03-03T04:09:28.929Z,3.40
2019-03-03T04:11:58.976Z,3.40
2019-03-03T04:14:34.848Z,3.40
2019-03-03T04:17:07.193Z,3.40
2019-03-03T04:19:37.887Z,3.50
2019-03-03T04:22:07.965Z,3.50
2019-03-03T04:24:37.993Z,3.50
2019-03-03T04:27:08.062Z,3.50
2019-03-03T04:29:44.213Z,3.50
2019-03-03T04:32:26.418Z,3.50
2019-03-03T04:34:59.251Z,3.60
2019-03-03T04:37:32.438Z,3.60
2019-03-03T04:40:14.622Z,3.60
2019-03-03T04:42:44.581Z,3.60
2019-03-03T04:45:17.347Z,3.70
2019-03-03T04:47:55.850Z,3.70
2019-03-03T04:50:34.984Z,3.70
2019-03-03T04:53:05.015Z,3.70
2019-03-03T04:55:46.970Z,3.70
2019-03-03T04:58:24.898Z,3.80
2019-03-03T05:01:07.241Z,3.80
2019-03-03T05:03:37.340Z,3.80
2019-03-03T05:06:10.073Z,3.80
2019-03-03T05:08:43.069Z,3.80
2019-03-03T05:11:15.185Z,3.80
2019-03-03T05:13:44.589Z,3.80
2019-03-03T05:16:17.575Z,3.80
2019-03-03T05:18:53.397Z,3.80
2019-03-03T05:21:21.783Z,3.80
2019-03-03T05:23:50.170Z,3.80
2019-03-03T05:26:18.580Z,3.80
2019-03-03T05:28:47.049Z,3.70
2019-03-03T05:31:15.377Z,3.70
2019-03-03T05:33:43.758Z,3.80
2019-03-03T05:36:12.150Z,3.80
2019-03-03T05:38:40.629Z,3.80
2019-03-03T05:41:09.109Z,3.80
2019-03-03T05:43:37.473Z,3.80
2019-03-03T05:46:05.890Z,3.80
2019-03-03T05:48:34.246Z,3.80
2019-03-03T05:51:03.254Z,3.70
2019-03-03T05:53:31.618Z,3.80
2019-03-03T05:55:59.998Z,3.70
2019-03-03T05:58:28.364Z,3.70
2019-03-03T06:00:56.820Z,3.70
2019-03-03T06:03:25.201Z,3.70
2019-03-03T06:05:53.586Z,3.70
2019-03-03T06:08:22.033Z,3.70
2019-03-03T06:10:50.425Z,3.80
2019-03-03T06:13:18.853Z,3.80
2019-03-03T06:15:47.216Z,3.80
2019-03-03T06:18:15.601Z,3.80
2019-03-03T06:20:44.347Z,3.70
2019-03-03T06:23:12.727Z,3.70
2019-03-03T06:25:41.042Z,3.80
2019-03-03T06:28:09.437Z,3.80
2019-03-03T06:30:37.838Z,3.80
2019-03-03T06:33:06.234Z,3.80
2019-03-03T06:35:34.640Z,3.90
2019-03-03T06:38:03.090Z,3.80
2019-03-03T06:40:31.492Z,3.80
2019-03-03T06:42:59.945Z,3.90
2019-03-03T06:45:28.400Z,3.90
2019-03-03T06:47:56.794Z,3.90
2019-03-03T06:50:25.160Z,4.00
2019-03-03T06:52:53.655Z,4.00
2019-03-03T06:55:21.942Z,4.00
2019-03-03T06:57:50.292Z,4.00
2019-03-03T07:00:18.723Z,4.10
2019-03-03T07:02:47.093Z,4.10
2019-03-03T07:05:15.523Z,4.10
2019-03-03T07:07:43.885Z,4.20
2019-03-03T07:10:13.507Z,4.20
2019-03-03T07:12:41.911Z,4.30
2019-03-03T07:15:12.643Z,4.30
2019-03-03T07:17:41.043Z,4.30
2019-03-03T07:20:11.176Z,4.20
2019-03-03T07:22:39.637Z,4.30
2019-03-03T07:25:09.981Z,4.30
2019-03-03T07:27:38.445Z,4.40
2019-03-03T07:30:15.535Z,4.40
2019-03-03T07:33:04.382Z,4.50
2019-03-03T07:35:32.757Z,4.50
2019-03-03T07:38:01.122Z,4.50
2019-03-03T07:40:29.504Z,4.50
2019-03-03T07:42:57.882Z,4.50
2019-03-03T07:45:26.270Z,4.50
2019-03-03T07:47:54.760Z,4.50
2019-03-03T07:50:23.226Z,4.50
2019-03-03T07:52:51.603Z,4.50
2019-03-03T07:55:20.009Z,4.60
2019-03-03T07:57:48.579Z,4.60
2019-03-03T08:00:17.502Z,4.70
2019-03-03T08:02:45.867Z,4.70
2019-03-03T08:05:14.201Z,4.70
2019-03-03T08:07:42.618Z,4.70
2019-03-03T08:10:13.347Z,4.80
2019-03-03T08:12:41.789Z,4.80
2019-03-03T08:15:17.425Z,4.80
2019-03-03T08:17:45.813Z,4.80
2019-03-03T08:20:14.617Z,4.90
2019-03-03T08:22:42.997Z,4.90
2019-03-03T08:25:12.187Z,5.00
2019-03-03T08:27:40.487Z,4.90
2019-03-03T08:30:16.669Z,5.00
2019-03-03T08:32:45.066Z,5.00
2019-03-03T08:35:16.006Z,5.00
2019-03-03T08:37:44.318Z,5.00
2019-03-03T08:40:12.712Z,5.10
2019-03-03T08:42:45.435Z,5.10
2019-03-03T08:45:21.150Z,5.20
2019-03-03T08:48:09.874Z,5.10
2019-03-03T08:50:39.939Z,5.10
2019-03-03T08:53:12.836Z,5.10
2019-03-03T08:55:45.509Z,5.10
2019-03-03T08:58:15.532Z,5.20
2019-03-03T09:00:54.689Z,5.20
2019-03-03T09:03:27.404Z,5.30
2019-03-03T09:05:57.425Z,5.30
2019-03-03T09:08:43.540Z,5.30
2019-03-03T09:11:25.663Z,5.40
2019-03-03T09:14:07.451Z,5.50
2019-03-03T09:16:53.720Z,5.60
2019-03-03T09:19:23.734Z,5.70
2019-03-03T09:21:53.834Z,5.80
2019-03-03T09:24:27.483Z,5.90
2019-03-03T09:27:03.234Z,6.00
2019-03-03T09:29:35.894Z,6.10
2019-03-03T09:32:14.883Z,6.10
2019-03-03T09:34:47.595Z,6.10
2019-03-03T09:37:17.634Z,6.10
2019-03-03T09:39:47.722Z,6.20
2019-03-03T09:42:23.463Z,6.20
2019-03-03T09:44:53.458Z,6.30
2019-03-03T09:47:38.767Z,6.40
2019-03-03T09:50:14.061Z,6.40
2019-03-03T09:52:44.065Z,6.50
2019-03-03T09:55:16.801Z,6.60
2019-03-03T09:57:46.869Z,6.70
2019-03-03T10:00:16.865Z,6.80
2019-03-03T10:02:49.711Z,6.80
2019-03-03T10:05:22.486Z,6.90
2019-03-03T10:07:52.499Z,6.90
2019-03-03T10:10:25.546Z,7.00
2019-03-03T10:13:07.451Z,6.90
2019-03-03T10:15:52.470Z,7.00
2019-03-03T10:18:25.286Z,7.00
2019-03-03T10:21:03.103Z,7.00
2019-03-03T10:23:48.191Z,7.10
2019-03-03T10:26:24.257Z,7.10
2019-03-03T10:29:12.600Z,7.20
2019-03-03T10:31:43.728Z,7.30
2019-03-03T10:34:16.736Z,7.30
2019-03-03T10:37:01.820Z,7.40
2019-03-03T10:39:31.839Z,7.60
2019-03-03T10:42:18.050Z,7.80
2019-03-03T10:45:06.343Z,7.80
2019-03-03T10:47:42.389Z,7.80
2019-03-03T10:53:04.409Z,7.90
2019-03-03T10:55:48.188Z,8.00
2019-03-03T10:58:18.162Z,7.80
2019-03-03T11:00:48.127Z,7.70
2019-03-03T11:03:18.146Z,7.80
2019-03-03T11:06:03.141Z,7.80
2019-03-03T11:08:39.213Z,7.80
2019-03-03T11:11:14.982Z,7.80
2019-03-03T11:13:48.044Z,7.70
2019-03-03T11:16:34.290Z,7.70
2019-03-03T11:19:07.275Z,7.70
2019-03-03T11:21:49.369Z,8.10
2019-03-03T11:24:22.481Z,8.70
2019-03-03T11:26:55.339Z,8.60
2019-03-03T11:29:25.332Z,8.50
2019-03-03T11:31:58.181Z,8.70
2019-03-03T11:34:44.051Z,9.40
2019-03-03T11:37:26.287Z,9.20
2019-03-03T11:40:02.266Z,9.10
2019-03-03T11:42:32.341Z,8.70
2019-03-03T11:45:11.807Z,8.60
2019-03-03T11:47:47.681Z,9.00
2019-03-03T11:50:20.585Z,8.90
2019-03-03T11:53:08.617Z,9.10
2019-03-03T11:55:44.446Z,9.20
2019-03-03T11:58:31.010Z,9.30
2019-03-03T12:01:06.446Z,9.30
2019-03-03T12:03:42.571Z,8.90
2019-03-03T12:06:12.606Z,8.80
2019-03-03T12:08:45.374Z,8.80
2019-03-03T12:11:24.076Z,9.10
2019-03-03T12:13:56.882Z,9.40
2019-03-03T12:16:26.900Z,9.30
2019-03-03T12:19:13.170Z,9.00
2019-03-03T12:24:44.409Z,9.10
2019-03-03T12:27:29.430Z,9.40
2019-03-03T12:29:59.527Z,10.00
2019-03-03T12:32:32.429Z,10.40
2019-03-03T12:35:11.735Z,10.80
2019-03-03T12:37:48.067Z,10.10
2019-03-03T12:40:30.421Z,9.60
2019-03-03T12:43:00.471Z,9.10
2019-03-03T12:45:33.711Z,8.70
2019-03-03T12:48:06.695Z,8.60
2019-03-03T12:50:52.951Z,8.90
2019-03-03T12:53:34.733Z,8.80
2019-03-03T12:56:10.779Z,8.50
2019-03-03T12:58:59.174Z,8.30
2019-03-03T13:01:32.096Z,8.20
2019-03-03T13:07:02.984Z,8.20
2019-03-03T13:09:38.707Z,8.30
2019-03-03T13:12:24.764Z,8.50
2019-03-03T13:14:54.773Z,8.30
2019-03-03T13:17:24.809Z,8.60
2019-03-03T13:20:11.177Z,8.50
2019-03-03T13:22:53.093Z,8.10
2019-03-03T13:25:23.099Z,8.00
2019-03-03T13:27:53.144Z,8.00
2019-03-03T13:30:28.871Z,7.80
2019-03-03T13:33:04.639Z,8.00
2019-03-03T13:35:34.656Z,8.30
2019-03-03T13:38:16.794Z,8.50
2019-03-03T13:40:46.764Z,8.60
2019-03-03T13:43:15.229Z,9.20
2019-03-03T13:45:43.608Z,8.80
2019-03-03T13:48:11.986Z,8.90
2019-03-03T13:50:40.382Z,9.30
2019-03-03T13:53:08.850Z,9.50
2019-03-03T13:55:37.237Z,9.30
2019-03-03T13:58:05.596Z,9.10
2019-03-03T14:00:34.066Z,8.70
2019-03-03T14:03:02.464Z,8.70
2019-03-03T14:05:30.846Z,8.80
2019-03-03T14:07:59.240Z,9.00
2019-03-03T14:10:27.636Z,9.10
2019-03-03T14:12:56.919Z,9.90
2019-03-03T14:15:25.381Z,10.20
2019-03-03T14:17:53.808Z,9.70
2019-03-03T14:20:23.134Z,9.00
2019-03-03T14:22:52.892Z,8.80
2019-03-03T14:25:21.323Z,8.70
2019-03-03T14:27:49.702Z,8.50
2019-03-03T14:30:25.895Z,8.20
2019-03-03T14:32:54.287Z,8.00
2019-03-03T14:35:22.669Z,8.00
2019-03-03T14:37:50.989Z,7.80
2019-03-03T14:40:21.638Z,7.80
2019-03-03T14:42:49.997Z,7.90
2019-03-03T14:45:19.134Z,7.90
2019-03-03T14:47:47.614Z,7.80
2019-03-03T14:50:20.522Z,7.70
2019-03-03T14:52:51.031Z,7.70
2019-03-03T14:55:20.240Z,7.50
2019-03-03T14:57:48.622Z,7.40
2019-03-03T15:00:32.561Z,7.40
2019-03-03T15:03:02.674Z,7.50
2019-03-03T15:05:31.039Z,7.80
2019-03-03T15:07:59.384Z,8.30
2019-03-03T15:10:27.762Z,8.70
2019-03-03T15:12:56.173Z,9.00
2019-03-03T15:15:29.700Z,9.30
2019-03-03T15:17:58.034Z,9.20
2019-03-03T15:20:26.470Z,9.20
2019-03-03T15:22:54.869Z,8.90
2019-03-03T15:25:23.239Z,8.30
2019-03-03T15:27:51.664Z,8.00
2019-03-03T15:30:21.273Z,7.70
2019-03-03T15:32:50.277Z,7.50
2019-03-03T15:35:18.597Z,7.40
2019-03-03T15:37:47.101Z,7.40
2019-03-03T15:40:20.664Z,7.40
2019-03-03T15:42:49.054Z,7.40
2019-03-03T15:45:19.569Z,7.40
2019-03-03T15:47:47.950Z,7.20
2019-03-03T15:50:17.351Z,7.20
2019-03-03T15:52:45.736Z,7.10
2019-03-03T15:55:16.699Z,7.10
2019-03-03T15:57:45.218Z,7.00
2019-03-03T16:00:22.391Z,7.10
2019-03-03T16:02:50.830Z,7.00
2019-03-03T16:05:20.142Z,6.90
2019-03-03T16:07:48.528Z,6.90
2019-03-03T16:10:19.520Z,6.90
2019-03-03T16:12:47.997Z,6.90
2019-03-03T16:15:17.564Z,6.90
2019-03-03T16:17:45.946Z,6.90
2019-03-03T16:20:17.471Z,6.90
2019-03-03T16:22:46.757Z,6.90
2019-03-03T16:25:17.397Z,6.90
2019-03-03T16:27:45.707Z,6.80
2019-03-03T16:30:17.837Z,6.70
2019-03-03T16:32:45.855Z,6.70
2019-03-03T16:35:14.693Z,6.70
2019-03-03T16:37:42.985Z,6.80
2019-03-03T16:40:14.077Z,6.70
2019-03-03T16:42:42.491Z,6.70
2019-03-03T16:45:12.822Z,6.60
2019-03-03T16:47:41.191Z,6.60
2019-03-03T16:50:14.546Z,6.60
2019-03-03T16:52:42.902Z,6.60
2019-03-03T16:55:15.901Z,6.60
2019-03-03T16:57:44.303Z,6.60
2019-03-03T17:00:15.683Z,6.60
2019-03-03T17:02:44.068Z,6.50
2019-03-03T17:05:14.702Z,6.50
2019-03-03T17:07:43.087Z,6.50
2019-03-03T17:10:12.037Z,6.50
2019-03-03T17:12:40.423Z,6.50
2019-03-03T17:15:21.055Z,6.50
2019-03-03T17:17:49.468Z,6.50
2019-03-03T17:20:17.938Z,6.50
2019-03-03T17:22:46.377Z,6.40
2019-03-03T17:25:22.023Z,6.40
2019-03-03T17:27:50.393Z,6.40
2019-03-03T17:30:23.569Z,6.30
2019-03-03T17:32:51.940Z,6.30
2019-03-03T17:35:20.388Z,6.30
2019-03-03T17:37:48.911Z,6.30
2019-03-03T17:40:25.736Z,6.30
2019-03-03T17:42:54.243Z,6.30
2019-03-03T17:45:25.406Z,6.30
2019-03-03T17:47:53.776Z,6.30
2019-03-03T17:50:24.378Z,6.30
2019-03-03T17:52:52.781Z,6.20
2019-03-03T17:55:21.150Z,6.20
2019-03-03T17:57:50.095Z,6.30
2019-03-03T18:00:24.311Z,6.30
2019-03-03T18:02:53.154Z,6.20
2019-03-03T18:05:21.548Z,6.20
2019-03-03T18:07:50.157Z,6.20
2019-03-03T18:10:18.731Z,6.10
2019-03-03T18:12:47.121Z,6.10
2019-03-03T18:15:16.884Z,6.10
2019-03-03T18:17:45.271Z,6.10
2019-03-03T18:20:18.423Z,6.10
2019-03-03T18:22:46.839Z,6.10
2019-03-03T18:25:17.367Z,6.10
2019-03-03T18:27:45.845Z,6.10
2019-03-03T18:30:19.783Z,6.00
2019-03-03T18:32:48.177Z,6.00
2019-03-03T18:35:16.721Z,6.10
2019-03-03T18:37:45.158Z,6.00
2019-03-03T18:40:19.699Z,6.00
2019-03-03T18:42:48.622Z,6.00
2019-03-03T18:45:23.926Z,6.10
2019-03-03T18:47:52.307Z,6.00
2019-03-03T18:50:25.578Z,6.00
2019-03-03T18:52:53.956Z,6.00
2019-03-03T18:55:22.271Z,6.00
2019-03-03T18:57:50.652Z,6.10
2019-03-03T19:00:27.044Z,6.10
2019-03-03T19:02:55.448Z,6.00
2019-03-03T19:05:23.838Z,6.00
2019-03-03T19:07:52.194Z,6.10
2019-03-03T19:10:29.012Z,6.00
2019-03-03T19:12:58.265Z,6.00
2019-03-03T19:15:26.637Z,6.00
2019-03-03T19:17:55.013Z,6.00
2019-03-03T19:20:23.395Z,5.90
2019-03-03T19:22:51.777Z,5.90
2019-03-03T19:25:20.229Z,5.90
2019-03-03T19:27:48.597Z,5.90
2019-03-03T19:30:24.968Z,5.90
2019-03-03T19:33:32.263Z,5.80
2019-03-03T19:36:00.681Z,5.90
2019-03-03T19:38:29.951Z,5.80
2019-03-03T19:40:58.366Z,5.80
2019-03-03T19:43:28.074Z,5.80
2019-03-03T19:46:02.483Z,5.80
2019-03-03T19:48:31.146Z,5.80
2019-03-03T19:50:59.528Z,5.80
2019-03-03T19:53:28.489Z,5.70
2019-03-03T19:55:57.026Z,5.70
2019-03-03T19:58:25.428Z,5.70
2019-03-03T20:00:53.774Z,5.70
2019-03-03T20:03:22.222Z,5.70
2019-03-03T20:05:50.664Z,5.70
2019-03-03T20:08:19.135Z,5.70
2019-03-03T20:10:47.504Z,5.70
2019-03-03T20:13:16.045Z,5.70
2019-03-03T20:15:44.415Z,5.70
2019-03-03T20:18:13.154Z,5.70
2019-03-03T20:20:41.612Z,5.60
2019-03-03T20:23:10.011Z,5.60
2019-03-03T20:25:38.372Z,5.70
2019-03-03T20:28:06.737Z,5.60
2019-03-03T20:30:35.121Z,5.60
2019-03-03T20:33:03.502Z,5.60
2019-03-03T20:35:31.955Z,5.50
2019-03-03T20:38:00.488Z,5.60
2019-03-03T20:40:29.115Z,5.50
2019-03-03T20:42:57.611Z,5.40
2019-03-03T20:45:29.417Z,5.40
2019-03-03T20:47:57.849Z,5.40
2019-03-03T20:50:27.174Z,5.50
2019-03-03T20:52:55.567Z,5.50
2019-03-03T20:55:29.032Z,5.50
2019-03-03T20:57:57.414Z,5.40
2019-03-03T21:00:30.602Z,5.40
2019-03-03T21:02:59.203Z,5.40
2019-03-03T21:05:27.534Z,5.40
2019-03-03T21:07:55.998Z,5.30
2019-03-03T21:10:27.190Z,5.40
2019-03-03T21:12:55.560Z,5.30
2019-03-03T21:15:24.018Z,5.30
2019-03-03T21:17:53.136Z,5.30
2019-03-03T21:20:22.363Z,5.30
2019-03-03T21:22:50.758Z,5.40
2019-03-03T21:25:19.600Z,5.40
2019-03-03T21:27:47.997Z,5.40
2019-03-03T21:30:20.871Z,5.30
2019-03-03T21:32:49.271Z,5.30
2019-03-03T21:35:17.664Z,5.30
2019-03-03T21:37:47.274Z,5.30
2019-03-03T21:40:19.955Z,5.40
2019-03-03T21:42:48.414Z,5.30
2019-03-03T21:45:18.548Z,5.30
2019-03-03T21:47:47.105Z,5.30
2019-03-03T21:50:18.074Z,5.30
2019-03-03T21:52:46.529Z,5.30
2019-03-03T21:55:15.368Z,5.40
2019-03-03T21:57:43.834Z,5.30
2019-03-03T22:00:21.080Z,5.30
2019-03-03T22:02:49.462Z,5.30
2019-03-03T22:05:17.830Z,5.30
2019-03-03T22:07:46.264Z,5.20
2019-03-03T22:10:14.796Z,5.20
2019-03-03T22:12:43.287Z,5.30
2019-03-03T22:15:13.236Z,5.30
2019-03-03T22:17:41.563Z,5.30
2019-03-03T22:20:10.867Z,5.30
2019-03-03T22:22:39.263Z,5.20
2019-03-03T22:25:11.992Z,5.30
2019-03-03T22:27:40.509Z,5.20
2019-03-03T22:30:13.870Z,5.20
2019-03-03T22:32:42.322Z,5.30
2019-03-03T22:35:10.878Z,5.30
2019-03-03T22:37:39.317Z,5.30
2019-03-03T22:40:16.633Z,5.30
2019-03-03T22:42:45.069Z,5.30
2019-03-03T22:45:15.018Z,5.30
2019-03-03T22:47:45.332Z,5.40
2019-03-03T22:50:15.889Z,5.30
2019-03-03T22:52:44.350Z,5.30
2019-03-03T22:55:14.328Z,5.20
2019-03-03T22:57:42.742Z,5.30
2019-03-03T23:00:14.581Z,5.30
2019-03-03T23:02:43.063Z,5.30
2019-03-03T23:05:32.801Z,5.30
2019-03-03T23:08:04.484Z,5.20
2019-03-03T23:11:09.570Z,5.20
2019-03-03T23:14:01.806Z,5.20
2019-03-03T23:16:46.338Z,5.20
2019-03-03T23:19:38.944Z,5.20
2019-03-03T23:22:31.950Z,5.20
2019-03-03T23:25:09.288Z,5.10
2019-03-03T23:27:37.668Z,5.10
2019-03-03T23:30:07.986Z,5.10
2019-03-03T23:32:36.398Z,5.10
2019-03-03T23:35:05.826Z,5.10
2019-03-03T23:37:34.759Z,5.10
2019-03-03T23:40:03.650Z,5.20
2019-03-03T23:42:32.092Z,5.20
2019-03-03T23:45:00.696Z,5.10
2019-03-03T23:47:29.291Z,5.10
2019-03-03T23:49:57.813Z,5.10
2019-03-03T23:52:26.187Z,5.10
2019-03-03T23:54:54.565Z,5.10
2019-03-03T23:57:23.562Z,5.10
2019-03-03T23:59:52.088Z,5.10
